sensor_id;sensor_type;location;lat;lon;timestamp;temperature;humidity
76291;DHT22;65100;46.884;17.410;2022-12-01T00:00:37;5.45;87.15
76291;DHT22;65100;46.884;17.410;2022-12-01T00:03:03;5.44;86.72
76291;DHT22;65100;46.884;17.410;2022-12-01T00:05:28;5.39;86.68
76291;DHT22;65100;46.884;17.410;2022-12-01T00:07:54;5.38;86.34
76291;DHT22;65100;46.884;17.410;2022-12-01T00:10:19;5.39;86.58
76291;DHT22;65100;46.884;17.410;2022-12-01T00:12:55;5.37;86.19
76291;DHT22;65100;46.884;17.410;2022-12-01T00:15:24;5.38;86.60
76291;DHT22;65100;46.884;17.410;2022-12-01T00:17:50;5.37;86.11
76291;DHT22;65100;46.884;17.410;2022-12-01T00:20:16;5.45;87.40
76291;DHT22;65100;46.884;17.410;2022-12-01T00:22:46;5.44;86.74
76291;DHT22;65100;46.884;17.410;2022-12-01T00:25:13;5.49;86.79
76291;DHT22;65100;46.884;17.410;2022-12-01T00:27:39;5.52;87.09
76291;DHT22;65100;46.884;17.410;2022-12-01T00:30:07;5.48;86.84
76291;DHT22;65100;46.884;17.410;2022-12-01T00:32:33;5.48;87.18
76291;DHT22;65100;46.884;17.410;2022-12-01T00:34:59;5.47;86.86
76291;DHT22;65100;46.884;17.410;2022-12-01T00:37:24;5.45;86.73
76291;DHT22;65100;46.884;17.410;2022-12-01T00:39:50;5.49;86.86
76291;DHT22;65100;46.884;17.410;2022-12-01T00:42:15;5.52;87.32
76291;DHT22;65100;46.884;17.410;2022-12-01T00:44:41;5.51;86.49
76291;DHT22;65100;46.884;17.410;2022-12-01T00:47:06;5.49;86.67
76291;DHT22;65100;46.884;17.410;2022-12-01T00:49:32;5.48;86.37
76291;DHT22;65100;46.884;17.410;2022-12-01T00:51:57;5.44;86.61
76291;DHT22;65100;46.884;17.410;2022-12-01T00:54:23;5.35;86.34
76291;DHT22;65100;46.884;17.410;2022-12-01T00:56:49;5.44;86.74
76291;DHT22;65100;46.884;17.410;2022-12-01T00:59:15;5.44;86.35
76291;DHT22;65100;46.884;17.410;2022-12-01T01:01:40;5.55;86.88
76291;DHT22;65100;46.884;17.410;2022-12-01T01:04:06;5.58;85.84
76291;DHT22;65100;46.884;17.410;2022-12-01T01:06:31;5.59;85.99
76291;DHT22;65100;46.884;17.410;2022-12-01T01:08:57;5.54;85.92
76291;DHT22;65100;46.884;17.410;2022-12-01T01:11:23;5.54;85.93
76291;DHT22;65100;46.884;17.410;2022-12-01T01:13:49;5.61;86.66
76291;DHT22;65100;46.884;17.410;2022-12-01T01:16:17;5.55;86.02
76291;DHT22;65100;46.884;17.410;2022-12-01T01:18:43;5.58;86.24
76291;DHT22;65100;46.884;17.410;2022-12-01T01:21:17;5.59;86.91
76291;DHT22;65100;46.884;17.410;2022-12-01T01:23:43;5.52;85.81
76291;DHT22;65100;46.884;17.410;2022-12-01T01:26:15;5.52;86.17
76291;DHT22;65100;46.884;17.410;2022-12-01T01:28:41;5.51;86.37
76291;DHT22;65100;46.884;17.410;2022-12-01T01:31:11;5.51;86.32
76291;DHT22;65100;46.884;17.410;2022-12-01T01:33:37;5.55;86.70
76291;DHT22;65100;46.884;17.410;2022-12-01T01:36:03;5.49;86.16
76291;DHT22;65100;46.884;17.410;2022-12-01T01:38:29;5.55;86.28
76291;DHT22;65100;46.884;17.410;2022-12-01T01:40:55;5.52;85.43
76291;DHT22;65100;46.884;17.410;2022-12-01T01:46:16;5.32;86.24
76291;DHT22;65100;46.884;17.410;2022-12-01T01:48:49;5.28;86.02
76291;DHT22;65100;46.884;17.410;2022-12-01T01:51:16;5.11;86.35
76291;DHT22;65100;46.884;17.410;2022-12-01T01:53:42;5.13;87.94
76291;DHT22;65100;46.884;17.410;2022-12-01T01:56:09;5.51;85.96
76291;DHT22;65100;46.884;17.410;2022-12-01T01:58:35;5.66;85.55
76291;DHT22;65100;46.884;17.410;2022-12-01T02:01:02;5.63;85.24
76291;DHT22;65100;46.884;17.410;2022-12-01T02:03:28;5.63;84.27
76291;DHT22;65100;46.884;17.410;2022-12-01T02:05:54;5.51;84.88
76291;DHT22;65100;46.884;17.410;2022-12-01T02:08:19;5.55;85.46
76291;DHT22;65100;46.884;17.410;2022-12-01T02:11:08;5.59;85.88
76291;DHT22;65100;46.884;17.410;2022-12-01T02:24:54;5.56;82.93
76291;DHT22;65100;46.884;17.410;2022-12-01T02:30:15;5.69;83.68
76291;DHT22;65100;46.884;17.410;2022-12-01T02:38:55;5.52;84.26
76291;DHT22;65100;46.884;17.410;2022-12-01T02:41:33;5.47;83.73
76291;DHT22;65100;46.884;17.410;2022-12-01T02:44:20;5.32;84.51
76291;DHT22;65100;46.884;17.410;2022-12-01T02:46:58;4.93;86.57
76291;DHT22;65100;46.884;17.410;2022-12-01T02:49:29;4.83;87.00
76291;DHT22;65100;46.884;17.410;2022-12-01T02:51:57;4.95;86.08
76291;DHT22;65100;46.884;17.410;2022-12-01T02:54:24;4.76;87.79
76291;DHT22;65100;46.884;17.410;2022-12-01T02:56:53;4.91;86.47
76291;DHT22;65100;46.884;17.410;2022-12-01T02:59:19;5.18;84.70
76291;DHT22;65100;46.884;17.410;2022-12-01T03:02:03;4.95;85.07
76291;DHT22;65100;46.884;17.410;2022-12-01T03:15:38;5.51;83.54
76291;DHT22;65100;46.884;17.410;2022-12-01T03:18:36;5.47;83.12
76291;DHT22;65100;46.884;17.410;2022-12-01T03:23:38;5.34;82.98
76291;DHT22;65100;46.884;17.410;2022-12-01T03:26:07;5.34;83.53
76291;DHT22;65100;46.884;17.410;2022-12-01T03:28:42;5.48;83.72
76291;DHT22;65100;46.884;17.410;2022-12-01T03:31:14;5.51;84.76
76291;DHT22;65100;46.884;17.410;2022-12-01T03:33:47;5.49;85.52
76291;DHT22;65100;46.884;17.410;2022-12-01T03:36:21;5.45;86.17
76291;DHT22;65100;46.884;17.410;2022-12-01T03:38:55;5.44;86.04
76291;DHT22;65100;46.884;17.410;2022-12-01T03:41:26;5.45;86.65
76291;DHT22;65100;46.884;17.410;2022-12-01T03:44:02;5.34;86.27
76291;DHT22;65100;46.884;17.410;2022-12-01T03:46:50;5.32;86.31
76291;DHT22;65100;46.884;17.410;2022-12-01T03:49:18;5.37;86.29
76291;DHT22;65100;46.884;17.410;2022-12-01T03:56:55;5.05;86.54
76291;DHT22;65100;46.884;17.410;2022-12-01T03:59:23;5.05;87.19
76291;DHT22;65100;46.884;17.410;2022-12-01T04:01:49;5.25;86.15
76291;DHT22;65100;46.884;17.410;2022-12-01T04:04:15;5.31;85.87
76291;DHT22;65100;46.884;17.410;2022-12-01T04:06:44;5.08;86.94
76291;DHT22;65100;46.884;17.410;2022-12-01T04:09:10;4.91;87.15
76291;DHT22;65100;46.884;17.410;2022-12-01T04:11:35;4.71;88.34
76291;DHT22;65100;46.884;17.410;2022-12-01T04:14:19;4.74;87.12
76291;DHT22;65100;46.884;17.410;2022-12-01T04:16:45;4.84;87.36
76291;DHT22;65100;46.884;17.410;2022-12-01T04:19:10;4.71;87.71
76291;DHT22;65100;46.884;17.410;2022-12-01T04:21:36;4.76;87.61
76291;DHT22;65100;46.884;17.410;2022-12-01T04:24:01;4.74;87.70
76291;DHT22;65100;46.884;17.410;2022-12-01T04:26:33;4.83;87.07
76291;DHT22;65100;46.884;17.410;2022-12-01T04:29:00;4.70;86.15
76291;DHT22;65100;46.884;17.410;2022-12-01T04:31:25;4.81;86.72
76291;DHT22;65100;46.884;17.410;2022-12-01T04:33:53;4.90;86.85
76291;DHT22;65100;46.884;17.410;2022-12-01T04:36:19;4.76;87.08
76291;DHT22;65100;46.884;17.410;2022-12-01T04:38:44;5.03;87.03
76291;DHT22;65100;46.884;17.410;2022-12-01T04:41:11;5.21;86.21
76291;DHT22;65100;46.884;17.410;2022-12-01T04:43:36;5.45;84.36
76291;DHT22;65100;46.884;17.410;2022-12-01T04:46:03;5.35;82.02
76291;DHT22;65100;46.884;17.410;2022-12-01T04:48:28;5.24;81.54
76291;DHT22;65100;46.884;17.410;2022-12-01T04:50:54;5.27;81.75
76291;DHT22;65100;46.884;17.410;2022-12-01T04:53:19;5.27;82.19
76291;DHT22;65100;46.884;17.410;2022-12-01T04:55:45;5.28;82.57
76291;DHT22;65100;46.884;17.410;2022-12-01T04:58:10;5.25;81.88
76291;DHT22;65100;46.884;17.410;2022-12-01T05:00:36;5.17;81.64
76291;DHT22;65100;46.884;17.410;2022-12-01T05:03:02;5.24;80.90
76291;DHT22;65100;46.884;17.410;2022-12-01T05:05:28;5.17;80.34
76291;DHT22;65100;46.884;17.410;2022-12-01T05:07:53;4.83;80.56
76291;DHT22;65100;46.884;17.410;2022-12-01T05:10:19;4.67;82.64
76291;DHT22;65100;46.884;17.410;2022-12-01T05:12:44;4.95;82.19
76291;DHT22;65100;46.884;17.410;2022-12-01T05:15:13;5.01;80.40
76291;DHT22;65100;46.884;17.410;2022-12-01T05:17:38;4.97;81.43
76291;DHT22;65100;46.884;17.410;2022-12-01T05:20:04;5.05;83.40
76291;DHT22;65100;46.884;17.410;2022-12-01T05:22:49;4.98;81.49
76291;DHT22;65100;46.884;17.410;2022-12-01T05:25:17;5.05;81.25
76291;DHT22;65100;46.884;17.410;2022-12-01T05:27:42;5.08;81.25
76291;DHT22;65100;46.884;17.410;2022-12-01T05:30:08;5.01;81.09
76291;DHT22;65100;46.884;17.410;2022-12-01T05:32:34;5.05;81.32
76291;DHT22;65100;46.884;17.410;2022-12-01T05:34:59;4.79;81.98
76291;DHT22;65100;46.884;17.410;2022-12-01T05:37:25;4.76;82.59
76291;DHT22;65100;46.884;17.410;2022-12-01T05:39:50;4.90;81.30
76291;DHT22;65100;46.884;17.410;2022-12-01T05:42:15;4.87;79.64
76291;DHT22;65100;46.884;17.410;2022-12-01T05:44:41;4.85;79.87
76291;DHT22;65100;46.884;17.410;2022-12-01T05:47:06;4.76;79.99
76291;DHT22;65100;46.884;17.410;2022-12-01T05:49:32;4.85;77.70
76291;DHT22;65100;46.884;17.410;2022-12-01T05:51:57;4.59;79.57
76291;DHT22;65100;46.884;17.410;2022-12-01T05:54:23;4.64;78.90
76291;DHT22;65100;46.884;17.410;2022-12-01T05:56:48;4.71;79.12
76291;DHT22;65100;46.884;17.410;2022-12-01T05:59:14;4.71;78.10
76291;DHT22;65100;46.884;17.410;2022-12-01T06:01:39;4.60;80.41
76291;DHT22;65100;46.884;17.410;2022-12-01T06:04:04;4.74;80.53
76291;DHT22;65100;46.884;17.410;2022-12-01T06:06:30;4.69;81.56
76291;DHT22;65100;46.884;17.410;2022-12-01T06:08:55;4.77;78.44
76291;DHT22;65100;46.884;17.410;2022-12-01T06:11:21;4.80;78.92
76291;DHT22;65100;46.884;17.410;2022-12-01T06:13:46;4.56;78.23
76291;DHT22;65100;46.884;17.410;2022-12-01T06:16:12;4.49;78.57
76291;DHT22;65100;46.884;17.410;2022-12-01T06:18:37;4.43;79.54
76291;DHT22;65100;46.884;17.410;2022-12-01T06:21:07;4.46;78.37
76291;DHT22;65100;46.884;17.410;2022-12-01T06:23:33;4.17;80.09
76291;DHT22;65100;46.884;17.410;2022-12-01T06:25:58;4.56;80.49
76291;DHT22;65100;46.884;17.410;2022-12-01T06:28:24;4.79;80.62
76291;DHT22;65100;46.884;17.410;2022-12-01T06:30:49;4.74;80.13
76291;DHT22;65100;46.884;17.410;2022-12-01T06:33:15;4.73;79.53
76291;DHT22;65100;46.884;17.410;2022-12-01T06:35:40;4.73;81.65
76291;DHT22;65100;46.884;17.410;2022-12-01T06:38:06;4.87;81.28
76291;DHT22;65100;46.884;17.410;2022-12-01T06:40:31;4.76;79.94
76291;DHT22;65100;46.884;17.410;2022-12-01T06:43:00;4.84;80.58
76291;DHT22;65100;46.884;17.410;2022-12-01T06:45:29;4.79;78.03
76291;DHT22;65100;46.884;17.410;2022-12-01T06:47:56;4.69;78.84
76291;DHT22;65100;46.884;17.410;2022-12-01T06:50:22;4.69;80.55
76291;DHT22;65100;46.884;17.410;2022-12-01T06:52:48;4.87;77.72
76291;DHT22;65100;46.884;17.410;2022-12-01T06:55:14;4.73;77.63
76291;DHT22;65100;46.884;17.410;2022-12-01T06:57:40;4.80;78.17
76291;DHT22;65100;46.884;17.410;2022-12-01T07:00:06;4.69;79.09
76291;DHT22;65100;46.884;17.410;2022-12-01T07:02:33;4.59;81.44
76291;DHT22;65100;46.884;17.410;2022-12-01T07:04:58;4.79;80.40
76291;DHT22;65100;46.884;17.410;2022-12-01T07:07:24;4.80;79.47
76291;DHT22;65100;46.884;17.410;2022-12-01T07:09:49;4.98;78.58
76291;DHT22;65100;46.884;17.410;2022-12-01T07:12:15;5.04;78.65
76291;DHT22;65100;46.884;17.410;2022-12-01T07:14:40;4.95;79.62
76291;DHT22;65100;46.884;17.410;2022-12-01T07:17:07;4.98;80.25
76291;DHT22;65100;46.884;17.410;2022-12-01T07:19:34;5.10;80.73
76291;DHT22;65100;46.884;17.410;2022-12-01T07:22:02;5.07;80.85
76291;DHT22;65100;46.884;17.410;2022-12-01T07:24:28;5.03;81.80
76291;DHT22;65100;46.884;17.410;2022-12-01T07:26:54;5.11;81.35
76291;DHT22;65100;46.884;17.410;2022-12-01T07:29:20;4.88;81.46
76291;DHT22;65100;46.884;17.410;2022-12-01T07:31:45;4.83;82.44
76291;DHT22;65100;46.884;17.410;2022-12-01T07:34:11;4.61;83.44
76291;DHT22;65100;46.884;17.410;2022-12-01T07:36:40;4.97;81.85
76291;DHT22;65100;46.884;17.410;2022-12-01T07:39:07;4.90;80.93
76291;DHT22;65100;46.884;17.410;2022-12-01T07:41:33;4.85;81.52
76291;DHT22;65100;46.884;17.410;2022-12-01T07:43:59;4.83;81.62
76291;DHT22;65100;46.884;17.410;2022-12-01T07:46:26;4.67;81.40
76291;DHT22;65100;46.884;17.410;2022-12-01T07:48:53;4.83;77.79
76291;DHT22;65100;46.884;17.410;2022-12-01T07:51:19;4.79;78.20
76291;DHT22;65100;46.884;17.410;2022-12-01T07:53:46;4.83;77.21
76291;DHT22;65100;46.884;17.410;2022-12-01T07:56:12;4.95;76.70
76291;DHT22;65100;46.884;17.410;2022-12-01T07:58:38;4.93;78.02
76291;DHT22;65100;46.884;17.410;2022-12-01T08:01:12;5.00;76.26
76291;DHT22;65100;46.884;17.410;2022-12-01T08:03:39;4.85;77.34
76291;DHT22;65100;46.884;17.410;2022-12-01T08:06:06;4.94;76.60
76291;DHT22;65100;46.884;17.410;2022-12-01T08:08:33;4.97;74.87
76291;DHT22;65100;46.884;17.410;2022-12-01T08:11:00;4.94;76.16
76291;DHT22;65100;46.884;17.410;2022-12-01T08:13:26;4.98;76.04
76291;DHT22;65100;46.884;17.410;2022-12-01T08:15:52;4.84;76.52
76291;DHT22;65100;46.884;17.410;2022-12-01T08:18:17;4.91;75.79
76291;DHT22;65100;46.884;17.410;2022-12-01T08:20:43;4.84;76.68
76291;DHT22;65100;46.884;17.410;2022-12-01T08:23:08;4.83;75.48
76291;DHT22;65100;46.884;17.410;2022-12-01T08:25:34;4.80;77.00
76291;DHT22;65100;46.884;17.410;2022-12-01T08:28:00;4.94;77.02
76291;DHT22;65100;46.884;17.410;2022-12-01T08:30:26;4.84;77.09
76291;DHT22;65100;46.884;17.410;2022-12-01T08:32:53;5.03;78.00
76291;DHT22;65100;46.884;17.410;2022-12-01T08:35:19;5.11;76.28
76291;DHT22;65100;46.884;17.410;2022-12-01T08:37:44;5.14;77.04
76291;DHT22;65100;46.884;17.410;2022-12-01T08:40:10;5.00;76.22
76291;DHT22;65100;46.884;17.410;2022-12-01T08:42:36;5.01;77.20
76291;DHT22;65100;46.884;17.410;2022-12-01T08:45:01;5.13;76.49
76291;DHT22;65100;46.884;17.410;2022-12-01T08:47:27;4.95;77.20
76291;DHT22;65100;46.884;17.410;2022-12-01T08:49:53;5.13;78.64
76291;DHT22;65100;46.884;17.410;2022-12-01T08:52:19;5.10;77.05
76291;DHT22;65100;46.884;17.410;2022-12-01T08:54:45;5.15;79.46
76291;DHT22;65100;46.884;17.410;2022-12-01T08:57:31;5.42;79.71
76291;DHT22;65100;46.884;17.410;2022-12-01T09:00:17;5.61;77.99
76291;DHT22;65100;46.884;17.410;2022-12-01T09:02:43;5.56;78.09
76291;DHT22;65100;46.884;17.410;2022-12-01T09:05:08;5.69;78.19
76291;DHT22;65100;46.884;17.410;2022-12-01T09:07:34;5.76;77.78
76291;DHT22;65100;46.884;17.410;2022-12-01T09:10:00;5.86;78.41
76291;DHT22;65100;46.884;17.410;2022-12-01T09:12:27;5.72;77.08
76291;DHT22;65100;46.884;17.410;2022-12-01T09:14:53;5.48;76.56
76291;DHT22;65100;46.884;17.410;2022-12-01T09:17:21;5.52;78.08
76291;DHT22;65100;46.884;17.410;2022-12-01T09:19:47;5.79;77.60
76291;DHT22;65100;46.884;17.410;2022-12-01T09:22:13;6.01;77.75
76291;DHT22;65100;46.884;17.410;2022-12-01T09:24:38;6.02;78.00
76291;DHT22;65100;46.884;17.410;2022-12-01T09:27:04;6.22;78.54
76291;DHT22;65100;46.884;17.410;2022-12-01T09:29:31;6.05;77.71
76291;DHT22;65100;46.884;17.410;2022-12-01T09:31:57;5.78;76.47
76291;DHT22;65100;46.884;17.410;2022-12-01T09:34:24;5.73;78.30
76291;DHT22;65100;46.884;17.410;2022-12-01T09:36:54;5.79;78.33
76291;DHT22;65100;46.884;17.410;2022-12-01T09:39:20;5.96;78.79
76291;DHT22;65100;46.884;17.410;2022-12-01T09:42:01;6.13;77.35
76291;DHT22;65100;46.884;17.410;2022-12-01T09:44:41;6.01;79.47
76291;DHT22;65100;46.884;17.410;2022-12-01T09:47:30;5.88;78.63
76291;DHT22;65100;46.884;17.410;2022-12-01T09:50:08;5.95;78.57
76291;DHT22;65100;46.884;17.410;2022-12-01T09:52:41;5.92;78.57
76291;DHT22;65100;46.884;17.410;2022-12-01T09:55:12;5.95;79.15
76291;DHT22;65100;46.884;17.410;2022-12-01T09:57:39;6.23;78.32
76291;DHT22;65100;46.884;17.410;2022-12-01T10:00:18;5.96;80.03
76291;DHT22;65100;46.884;17.410;2022-12-01T10:02:56;5.99;80.61
76291;DHT22;65100;46.884;17.410;2022-12-01T10:05:33;6.15;80.22
76291;DHT22;65100;46.884;17.410;2022-12-01T10:08:07;6.16;79.98
76291;DHT22;65100;46.884;17.410;2022-12-01T10:10:38;5.91;81.57
76291;DHT22;65100;46.884;17.410;2022-12-01T10:18:28;6.61;80.62
76291;DHT22;65100;46.884;17.410;2022-12-01T10:26:20;7.22;83.58
76291;DHT22;65100;46.884;17.410;2022-12-01T10:34:24;6.94;77.37
76291;DHT22;65100;46.884;17.410;2022-12-01T10:36:50;7.01;77.41
76291;DHT22;65100;46.884;17.410;2022-12-01T10:39:28;7.07;77.77
76291;DHT22;65100;46.884;17.410;2022-12-01T10:42:02;7.03;76.57
76291;DHT22;65100;46.884;17.410;2022-12-01T10:44:28;6.93;76.45
76291;DHT22;65100;46.884;17.410;2022-12-01T10:46:55;6.97;76.74
76291;DHT22;65100;46.884;17.410;2022-12-01T10:49:37;6.97;76.69
76291;DHT22;65100;46.884;17.410;2022-12-01T10:52:03;7.00;75.51
76291;DHT22;65100;46.884;17.410;2022-12-01T10:54:38;7.03;75.03
76291;DHT22;65100;46.884;17.410;2022-12-01T10:57:05;7.01;74.81
76291;DHT22;65100;46.884;17.410;2022-12-01T11:01:58;7.11;75.53
76291;DHT22;65100;46.884;17.410;2022-12-01T11:04:43;7.14;75.95
76291;DHT22;65100;46.884;17.410;2022-12-01T11:07:28;7.07;76.00
76291;DHT22;65100;46.884;17.410;2022-12-01T11:10:19;7.09;75.90
76291;DHT22;65100;46.884;17.410;2022-12-01T11:12:54;6.93;74.96
76291;DHT22;65100;46.884;17.410;2022-12-01T11:15:47;6.94;75.81
76291;DHT22;65100;46.884;17.410;2022-12-01T11:18:32;6.93;76.36
76291;DHT22;65100;46.884;17.410;2022-12-01T11:23:46;7.03;76.69
76291;DHT22;65100;46.884;17.410;2022-12-01T11:26:24;6.97;76.62
76291;DHT22;65100;46.884;17.410;2022-12-01T11:28:53;7.03;77.04
76291;DHT22;65100;46.884;17.410;2022-12-01T11:31:22;7.04;75.85
76291;DHT22;65100;46.884;17.410;2022-12-01T11:33:55;6.98;76.21
76291;DHT22;65100;46.884;17.410;2022-12-01T11:36:24;7.00;76.04
76291;DHT22;65100;46.884;17.410;2022-12-01T11:38:55;6.88;77.13
76291;DHT22;65100;46.884;17.410;2022-12-01T11:41:28;7.00;75.87
76291;DHT22;65100;46.884;17.410;2022-12-01T11:43:56;7.01;77.58
76291;DHT22;65100;46.884;17.410;2022-12-01T11:46:36;7.00;76.00
76291;DHT22;65100;46.884;17.410;2022-12-01T11:49:03;6.97;76.00
76291;DHT22;65100;46.884;17.410;2022-12-01T11:51:33;6.97;76.33
76291;DHT22;65100;46.884;17.410;2022-12-01T11:54:24;7.00;75.59
76291;DHT22;65100;46.884;17.410;2022-12-01T11:56:51;7.03;75.52
76291;DHT22;65100;46.884;17.410;2022-12-01T11:59:25;7.03;76.20
76291;DHT22;65100;46.884;17.410;2022-12-01T12:02:13;7.07;75.59
76291;DHT22;65100;46.884;17.410;2022-12-01T12:18:21;7.22;75.84
76291;DHT22;65100;46.884;17.410;2022-12-01T12:28:54;7.39;75.73
76291;DHT22;65100;46.884;17.410;2022-12-01T12:36:58;7.55;75.73
76291;DHT22;65100;46.884;17.410;2022-12-01T12:42:19;7.38;74.57
76291;DHT22;65100;46.884;17.410;2022-12-01T12:44:58;7.51;74.19
76291;DHT22;65100;46.884;17.410;2022-12-01T12:47:44;7.39;75.04
76291;DHT22;65100;46.884;17.410;2022-12-01T12:53:18;7.63;74.55
76291;DHT22;65100;46.884;17.410;2022-12-01T12:55:48;7.62;73.31
76291;DHT22;65100;46.884;17.410;2022-12-01T12:58:28;7.51;73.72
76291;DHT22;65100;46.884;17.410;2022-12-01T13:01:02;7.52;74.27
76291;DHT22;65100;46.884;17.410;2022-12-01T13:06:17;7.52;74.55
76291;DHT22;65100;46.884;17.410;2022-12-01T13:08:56;7.49;73.73
76291;DHT22;65100;46.884;17.410;2022-12-01T13:11:28;7.38;75.03
76291;DHT22;65100;46.884;17.410;2022-12-01T13:16:29;7.51;74.19
76291;DHT22;65100;46.884;17.410;2022-12-01T13:19:04;7.39;75.27
76291;DHT22;65100;46.884;17.410;2022-12-01T13:21:41;7.25;75.64
76291;DHT22;65100;46.884;17.410;2022-12-01T13:24:11;7.38;74.64
76291;DHT22;65100;46.884;17.410;2022-12-01T13:26:38;7.34;74.93
76291;DHT22;65100;46.884;17.410;2022-12-01T13:29:06;7.29;75.18
76291;DHT22;65100;46.884;17.410;2022-12-01T13:31:44;7.41;74.24
76291;DHT22;65100;46.884;17.410;2022-12-01T13:34:40;7.49;73.80
76291;DHT22;65100;46.884;17.410;2022-12-01T13:37:08;7.36;73.46
76291;DHT22;65100;46.884;17.410;2022-12-01T13:39:38;7.25;75.19
76291;DHT22;65100;46.884;17.410;2022-12-01T13:44:55;7.31;74.67
76291;DHT22;65100;46.884;17.410;2022-12-01T13:49:51;7.34;74.89
76291;DHT22;65100;46.884;17.410;2022-12-01T13:58:21;7.09;75.25
76291;DHT22;65100;46.884;17.410;2022-12-01T14:00:37;7.11;74.82
76291;DHT22;65100;46.884;17.410;2022-12-01T14:13:22;6.84;76.44
76291;DHT22;65100;46.884;17.410;2022-12-01T14:15:54;6.94;76.28
76291;DHT22;65100;46.884;17.410;2022-12-01T14:20:54;6.93;76.41
76291;DHT22;65100;46.884;17.410;2022-12-01T14:23:29;6.91;76.82
76291;DHT22;65100;46.884;17.410;2022-12-01T14:26:12;6.83;76.56
76291;DHT22;65100;46.884;17.410;2022-12-01T14:34:15;6.87;75.43
76291;DHT22;65100;46.884;17.410;2022-12-01T14:39:25;6.76;76.61
76291;DHT22;65100;46.884;17.410;2022-12-01T14:41:58;6.73;76.24
76291;DHT22;65100;46.884;17.410;2022-12-01T14:47:05;6.57;77.17
76291;DHT22;65100;46.884;17.410;2022-12-01T14:49:47;6.41;78.67
76291;DHT22;65100;46.884;17.410;2022-12-01T14:52:44;6.54;77.48
76291;DHT22;65100;46.884;17.410;2022-12-01T14:55:38;6.40;77.97
76291;DHT22;65100;46.884;17.410;2022-12-01T14:58:10;6.60;78.12
76291;DHT22;65100;46.884;17.410;2022-12-01T15:00:38;6.63;78.04
76291;DHT22;65100;46.884;17.410;2022-12-01T15:03:13;6.54;78.19
76291;DHT22;65100;46.884;17.410;2022-12-01T15:05:41;6.50;78.21
76291;DHT22;65100;46.884;17.410;2022-12-01T15:08:24;6.57;78.08
76291;DHT22;65100;46.884;17.410;2022-12-01T15:10:56;6.57;77.76
76291;DHT22;65100;46.884;17.410;2022-12-01T15:13:28;6.54;77.41
76291;DHT22;65100;46.884;17.410;2022-12-01T15:16:00;6.44;78.04
76291;DHT22;65100;46.884;17.410;2022-12-01T15:18:34;6.29;79.26
76291;DHT22;65100;46.884;17.410;2022-12-01T15:24:23;5.27;82.68
76291;DHT22;65100;46.884;17.410;2022-12-01T15:26:54;5.07;83.99
76291;DHT22;65100;46.884;17.410;2022-12-01T15:29:24;5.20;83.33
76291;DHT22;65100;46.884;17.410;2022-12-01T15:31:53;5.45;82.18
76291;DHT22;65100;46.884;17.410;2022-12-01T15:34:27;5.25;83.00
76291;DHT22;65100;46.884;17.410;2022-12-01T15:36:53;5.21;83.61
76291;DHT22;65100;46.884;17.410;2022-12-01T15:39:28;5.05;83.34
76291;DHT22;65100;46.884;17.410;2022-12-01T15:41:54;4.97;84.84
76291;DHT22;65100;46.884;17.410;2022-12-01T15:44:32;5.35;83.04
76291;DHT22;65100;46.884;17.410;2022-12-01T15:46:58;5.44;82.57
76291;DHT22;65100;46.884;17.410;2022-12-01T15:49:26;5.05;83.57
76291;DHT22;65100;46.884;17.410;2022-12-01T15:52:02;4.93;84.53
76291;DHT22;65100;46.884;17.410;2022-12-01T15:54:28;5.20;83.13
76291;DHT22;65100;46.884;17.410;2022-12-01T15:56:55;5.39;82.16
76291;DHT22;65100;46.884;17.410;2022-12-01T15:59:30;5.41;81.16
76291;DHT22;65100;46.884;17.410;2022-12-01T16:01:57;5.15;81.34
76291;DHT22;65100;46.884;17.410;2022-12-01T16:04:28;5.14;81.49
76291;DHT22;65100;46.884;17.410;2022-12-01T16:07:00;5.05;82.09
76291;DHT22;65100;46.884;17.410;2022-12-01T16:14:33;4.74;83.09
76291;DHT22;65100;46.884;17.410;2022-12-01T16:16:59;4.74;82.81
76291;DHT22;65100;46.884;17.410;2022-12-01T16:19:29;4.74;82.60
76291;DHT22;65100;46.884;17.410;2022-12-01T16:22:19;4.71;82.30
76291;DHT22;65100;46.884;17.410;2022-12-01T16:24:44;4.50;82.86
76291;DHT22;65100;46.884;17.410;2022-12-01T16:27:24;4.50;82.78
76291;DHT22;65100;46.884;17.410;2022-12-01T16:29:57;4.47;82.30
76291;DHT22;65100;46.884;17.410;2022-12-01T16:32:32;4.35;82.61
76291;DHT22;65100;46.884;17.410;2022-12-01T16:34:58;4.37;82.09
76291;DHT22;65100;46.884;17.410;2022-12-01T16:37:25;4.37;81.80
76291;DHT22;65100;46.884;17.410;2022-12-01T16:39:51;4.37;81.67
76291;DHT22;65100;46.884;17.410;2022-12-01T16:42:18;4.25;81.63
76291;DHT22;65100;46.884;17.410;2022-12-01T16:44:48;4.13;81.21
76291;DHT22;65100;46.884;17.410;2022-12-01T16:47:20;4.07;81.27
76291;DHT22;65100;46.884;17.410;2022-12-01T16:49:47;3.91;81.88
76291;DHT22;65100;46.884;17.410;2022-12-01T16:52:13;3.79;82.06
76291;DHT22;65100;46.884;17.410;2022-12-01T16:54:38;3.75;82.45
76291;DHT22;65100;46.884;17.410;2022-12-01T16:57:04;3.75;82.28
76291;DHT22;65100;46.884;17.410;2022-12-01T16:59:30;3.68;82.64
76291;DHT22;65100;46.884;17.410;2022-12-01T17:01:56;3.68;83.01
76291;DHT22;65100;46.884;17.410;2022-12-01T17:04:22;3.74;82.53
76291;DHT22;65100;46.884;17.410;2022-12-01T17:06:47;3.75;82.10
76291;DHT22;65100;46.884;17.410;2022-12-01T17:09:12;3.68;82.04
76291;DHT22;65100;46.884;17.410;2022-12-01T17:11:38;3.70;82.22
76291;DHT22;65100;46.884;17.410;2022-12-01T17:14:03;3.57;82.65
76291;DHT22;65100;46.884;17.410;2022-12-01T17:16:29;3.54;82.61
76291;DHT22;65100;46.884;17.410;2022-12-01T17:18:54;3.47;82.23
76291;DHT22;65100;46.884;17.410;2022-12-01T17:21:20;3.51;82.16
76291;DHT22;65100;46.884;17.410;2022-12-01T17:23:45;3.45;82.39
76291;DHT22;65100;46.884;17.410;2022-12-01T17:26:14;3.50;82.49
76291;DHT22;65100;46.884;17.410;2022-12-01T17:28:40;3.35;82.62
76291;DHT22;65100;46.884;17.410;2022-12-01T17:31:06;3.45;82.12
76291;DHT22;65100;46.884;17.410;2022-12-01T17:33:32;3.41;82.11
76291;DHT22;65100;46.884;17.410;2022-12-01T17:35:59;3.10;83.18
76291;DHT22;65100;46.884;17.410;2022-12-01T17:38:25;2.99;84.07
76291;DHT22;65100;46.884;17.410;2022-12-01T17:41:20;2.43;86.02
76291;DHT22;65100;46.884;17.410;2022-12-01T17:43:50;2.43;85.96
76291;DHT22;65100;46.884;17.410;2022-12-01T17:46:16;2.96;84.42
76291;DHT22;65100;46.884;17.410;2022-12-01T17:48:43;3.17;82.82
76291;DHT22;65100;46.884;17.410;2022-12-01T17:51:10;2.99;82.91
76291;DHT22;65100;46.884;17.410;2022-12-01T17:53:36;3.01;83.32
76291;DHT22;65100;46.884;17.410;2022-12-01T17:56:10;3.10;82.92
76291;DHT22;65100;46.884;17.410;2022-12-01T17:58:36;3.14;82.60
76291;DHT22;65100;46.884;17.410;2022-12-01T18:01:02;3.20;82.32
76291;DHT22;65100;46.884;17.410;2022-12-01T18:03:28;3.13;82.94
76291;DHT22;65100;46.884;17.410;2022-12-01T18:05:58;3.04;82.59
76291;DHT22;65100;46.884;17.410;2022-12-01T18:08:26;2.33;84.44